100LL.CA
Aviation Fuel Pricing for Canadians
Please upgrade your browser - Tested with IE9, FireFox, Chrome, Safari

Fuel Airports Other Help
Prices Economy Info List METAR/TAF Kneeboard Help

Reference Airport: VAL-D'OR, QC
N 48 03 12  W 077 46 58
Provinces to show:

CYVO VAL-D'OR, QC
WEATHER
METARCYVO 230200Z 18006KT 15SM BKN110 BKN220 M04/M08 A2946 RMK AC5CI1 SLP996
TAFTAF CYVO 222340Z 2300/2312 24008KT P6SM FEW220 FM230400 21008KT P6SM BKN070 TEMPO 2306/2309 BKN020 OVC060 FM230900 23010G20KT 6SM -SN OVC025 TEMPO 2309/2312 1SM -SN BKN007 OVC012 BECMG 2309/2311 32015G25KT RMK NXT FCST BY 230600Z
OTHER SITES

FlightAware

FltPlan

Google Maps

SkyVector
FUEL
FBO 100LL
member
100LL
public
JETA MOGAS
Hangar Q60 (2019-07-12)2.2421.575
Canada Flight Supplement - entry pending


Please Send Updates!

Desktop Version ]  [ Mobile Version ]  [ Disclaimer ]